Time;durP1;ratioP1;P1;durP2;ratioP2;P2;SDS_P1;SDS_P2;PMS_P1;PMS_P2;Temp;Humidity;BMP_temperature;BMP_pressure;BME280_temperature;BME280_humidity;BME280_pressure;Samples;Min_cycle;Max_cycle;Signal;HPM_P1;HPM_P2
2024/01/22 00:00:00;;;;;;;6.03;3.65;;;;;;;;;;5067976;27;100250;-74
2024/01/22 00:02:27;;;;;;;3.05;2.78;;;;;;;;;;5055871;27;99262;-74
2024/01/22 00:04:53;;;;;;;9.23;3.03;;;;;;;;;;5058949;27;99677;-74
2024/01/22 00:07:20;;;;;;;5.22;3.72;;;;;;;;;;5067200;27;100058;-74
2024/01/22 00:09:46;;;;;;;2.75;2.17;;;;;;;;;;5059204;27;99201;-74
2024/01/22 00:12:13;;;;;;;4.70;3.30;;;;;;;;;;5052160;27;99720;-74
2024/01/22 00:14:39;;;;;;;3.72;3.50;;;;;;;;;;5052395;27;100219;-74
2024/01/22 00:17:06;;;;;;;3.90;3.60;;;;;;;;;;5047296;27;100804;-74
2024/01/22 00:19:32;;;;;;;4.00;3.58;;;;;;;;;;5052957;27;99348;-74
2024/01/22 00:21:59;;;;;;;6.28;3.75;;;;;;;;;;5049805;27;100225;-74
2024/01/22 00:24:25;;;;;;;4.43;3.83;;;;;;;;;;5060248;27;99944;-74
2024/01/22 00:26:52;;;;;;;3.00;2.75;;;;;;;;;;5049993;27;100465;-74
2024/01/22 00:29:18;;;;;;;4.70;3.25;;;;;;;;;;5054586;27;100252;-74
2024/01/22 00:31:45;;;;;;;3.08;2.80;;;;;;;;;;5067831;27;98947;-74
2024/01/22 00:34:11;;;;;;;3.55;2.88;;;;;;;;;;5071728;27;100219;-74
2024/01/22 00:36:38;;;;;;;4.25;3.00;;;;;;;;;;5062992;27;100359;-74
2024/01/22 00:39:04;;;;;;;7.22;3.47;;;;;;;;;;5049043;27;100956;-74
2024/01/22 00:41:30;;;;;;;4.50;2.55;;;;;;;;;;5061097;27;99573;-74
2024/01/22 00:43:57;;;;;;;3.33;3.03;;;;;;;;;;5067068;27;100117;-74
2024/01/22 00:46:23;;;;;;;5.95;3.20;;;;;;;;;;5068024;27;100140;-74
2024/01/22 00:48:50;;;;;;;5.20;2.92;;;;;;;;;;5066196;27;99131;-74
2024/01/22 00:51:16;;;;;;;3.97;3.53;;;;;;;;;;5067162;27;99935;-74
2024/01/22 00:53:43;;;;;;;4.05;2.90;;;;;;;;;;5059008;27;99158;-74
2024/01/22 00:56:10;;;;;;;4.85;3.42;;;;;;;;;;5060061;27;100509;-74
2024/01/22 00:58:36;;;;;;;7.07;2.55;;;;;;;;;;5067228;27;100382;-74
2024/01/22 01:01:03;;;;;;;5.03;2.78;;;;;;;;;;5057310;27;98823;-74
2024/01/22 01:03:30;;;;;;;3.38;3.08;;;;;;;;;;5046475;27;99573;-74
2024/01/22 01:05:56;;;;;;;2.60;2.40;;;;;;;;;;5063050;27;100344;-74
2024/01/22 01:08:23;;;;;;;6.72;3.03;;;;;;;;;;5060156;27;100039;-74
2024/01/22 01:10:49;;;;;;;5.43;2.83;;;;;;;;;;5051645;27;100079;-74
2024/01/22 01:13:17;;;;;;;9.70;3.30;;;;;;;;;;5064001;27;100165;-74
2024/01/22 01:15:43;;;;;;;5.93;2.88;;;;;;;;;;5066577;27;99167;-74
2024/01/22 01:18:11;;;;;;;4.35;2.88;;;;;;;;;;5053442;27;100023;-74
2024/01/22 01:20:38;;;;;;;3.17;2.88;;;;;;;;;;5056355;27;99856;-74
2024/01/22 01:23:06;;;;;;;2.80;2.53;;;;;;;;;;5067196;27;99138;-74
2024/01/22 01:25:33;;;;;;;4.75;2.70;;;;;;;;;;5060071;27;100371;-74
2024/01/22 01:28:00;;;;;;;2.88;2.60;;;;;;;;;;5055397;27;100181;-75
2024/01/22 01:30:26;;;;;;;5.32;2.90;;;;;;;;;;5054676;27;99780;-74
2024/01/22 01:32:53;;;;;;;6.20;2.85;;;;;;;;;;5055354;27;100335;-73
2024/01/22 01:35:20;;;;;;;8.05;2.72;;;;;;;;;;5067394;27;100028;-73
2024/01/22 01:37:47;;;;;;;3.28;2.92;;;;;;;;;;5060625;27;99045;-73
2024/01/22 01:40:13;;;;;;;3.42;2.63;;;;;;;;;;5051364;27;100151;-73
2024/01/22 01:42:43;;;;;;;2.65;2.45;;;;;;;;;;5047941;27;100100;-73
2024/01/22 01:45:13;;;;;;;2.58;1.98;;;;;;;;;;5056358;27;99618;-73
2024/01/22 01:47:45;;;;;;;4.03;3.63;;;;;;;;;;5052661;27;100897;-73
2024/01/22 01:50:12;;;;;;;8.57;3.40;;;;;;;;;;5046639;27;99389;-73
2024/01/22 01:52:38;;;;;;;5.35;3.10;;;;;;;;;;5065525;27;101294;-74
2024/01/22 01:55:05;;;;;;;4.50;2.63;;;;;;;;;;5065822;27;100093;-74
2024/01/22 01:57:32;;;;;;;3.20;2.63;;;;;;;;;;5060337;27;99866;-74
2024/01/22 01:59:58;;;;;;;3.15;2.95;;;;;;;;;;5057621;27;100629;-73
2024/01/22 02:02:25;;;;;;;2.65;2.28;;;;;;;;;;5062794;27;98969;-73
2024/01/22 02:04:52;;;;;;;4.85;2.45;;;;;;;;;;5046784;27;100440;-73
2024/01/22 02:07:18;;;;;;;5.90;2.65;;;;;;;;;;5045617;27;99112;-73
2024/01/22 02:09:46;;;;;;;4.20;2.72;;;;;;;;;;5056085;27;99488;-73
2024/01/22 02:12:14;;;;;;;2.88;2.20;;;;;;;;;;5061128;27;101088;-73
2024/01/22 02:14:40;;;;;;;3.05;2.30;;;;;;;;;;5053650;27;99081;-74
2024/01/22 02:17:07;;;;;;;4.93;2.50;;;;;;;;;;5047389;27;99991;-74
2024/01/22 02:19:33;;;;;;;3.38;2.30;;;;;;;;;;5052588;27;100520;-73
2024/01/22 02:22:00;;;;;;;4.13;2.08;;;;;;;;;;5057732;27;99807;-75
2024/01/22 02:24:26;;;;;;;2.20;2.03;;;;;;;;;;5061256;27;99446;-74
2024/01/22 02:26:53;;;;;;;3.38;2.30;;;;;;;;;;5063740;27;98930;-74
2024/01/22 02:29:19;;;;;;;3.50;2.30;;;;;;;;;;5061622;27;99973;-74
2024/01/22 02:31:48;;;;;;;2.83;2.13;;;;;;;;;;5062879;27;100207;-73
2024/01/22 02:34:17;;;;;;;1.95;1.85;;;;;;;;;;5045702;27;99910;-74
2024/01/22 02:36:45;;;;;;;3.67;2.13;;;;;;;;;;5057275;27;99034;-73
2024/01/22 02:39:12;;;;;;;4.60;2.58;;;;;;;;;;5057125;27;99540;-73
2024/01/22 02:41:39;;;;;;;1.98;1.88;;;;;;;;;;5044752;27;99926;-73
2024/01/22 02:44:05;;;;;;;2.25;1.83;;;;;;;;;;5066800;27;100874;-72
2024/01/22 02:46:32;;;;;;;3.78;2.08;;;;;;;;;;5053086;27;98904;-73
2024/01/22 02:48:59;;;;;;;2.80;1.90;;;;;;;;;;5058005;27;100010;-73
2024/01/22 02:51:25;;;;;;;3.22;2.30;;;;;;;;;;5066508;27;100266;-73
2024/01/22 02:53:52;;;;;;;2.65;2.10;;;;;;;;;;5064692;27;99858;-74
2024/01/22 02:56:19;;;;;;;2.00;1.90;;;;;;;;;;5064623;27;100118;-74
2024/01/22 02:58:46;;;;;;;3.03;2.38;;;;;;;;;;5062985;27;98864;-74
2024/01/22 03:01:13;;;;;;;3.88;2.40;;;;;;;;;;5052898;27;100032;-74
2024/01/22 03:03:40;;;;;;;2.80;1.83;;;;;;;;;;5050254;27;99105;-75
2024/01/22 03:06:08;;;;;;;3.05;2.10;;;;;;;;;;5057315;27;100932;-74
2024/01/22 03:08:34;;;;;;;1.77;1.67;;;;;;;;;;5046253;27;100617;-74
2024/01/22 03:11:01;;;;;;;2.08;1.98;;;;;;;;;;5045240;27;100345;-74
2024/01/22 03:13:28;;;;;;;1.90;1.80;;;;;;;;;;5059198;27;100364;-74
2024/01/22 03:15:54;;;;;;;1.65;1.55;;;;;;;;;;5065335;27;99900;-74
2024/01/22 03:18:21;;;;;;;1.70;1.60;;;;;;;;;;5053504;27;100789;-74
2024/01/22 03:20:47;;;;;;;2.05;1.67;;;;;;;;;;5048035;27;100157;-74
2024/01/22 03:23:14;;;;;;;1.58;1.48;;;;;;;;;;5064797;27;100177;-74
2024/01/22 03:25:40;;;;;;;2.05;1.75;;;;;;;;;;5068854;27;99432;-75
2024/01/22 03:28:07;;;;;;;1.38;1.27;;;;;;;;;;5071956;27;100216;-74
2024/01/22 03:30:33;;;;;;;1.20;1.20;;;;;;;;;;5067075;27;100544;-75
2024/01/22 03:33:00;;;;;;;6.30;1.60;;;;;;;;;;5067428;27;99926;-74
2024/01/22 03:35:26;;;;;;;1.30;1.30;;;;;;;;;;5056515;27;100097;-74
2024/01/22 03:37:53;;;;;;;4.88;1.65;;;;;;;;;;5064250;27;100116;-74
2024/01/22 03:40:19;;;;;;;1.30;1.30;;;;;;;;;;5068601;27;99994;-73
2024/01/22 03:42:46;;;;;;;5.28;1.65;;;;;;;;;;5064464;27;99858;-74
2024/01/22 03:45:14;;;;;;;1.63;1.60;;;;;;;;;;5047864;27;100348;-74
2024/01/22 03:47:40;;;;;;;1.42;1.42;;;;;;;;;;5052144;27;100242;-74
2024/01/22 03:50:07;;;;;;;1.55;1.50;;;;;;;;;;5061391;27;100249;-74
2024/01/22 03:52:34;;;;;;;3.00;1.52;;;;;;;;;;5052594;27;99958;-74
2024/01/22 03:55:02;;;;;;;2.33;1.67;;;;;;;;;;5067124;27;99554;-74
2024/01/22 03:57:28;;;;;;;1.75;1.65;;;;;;;;;;5068675;27;100483;-74
2024/01/22 03:59:54;;;;;;;2.53;1.52;;;;;;;;;;5050189;27;100326;-74
2024/01/22 04:02:21;;;;;;;1.55;1.45;;;;;;;;;;5068327;27;100300;-73
2024/01/22 04:04:47;;;;;;;1.45;1.45;;;;;;;;;;5065949;27;100565;-73
2024/01/22 04:07:14;;;;;;;1.92;1.70;;;;;;;;;;5054721;27;98968;-74
2024/01/22 04:09:40;;;;;;;1.65;1.55;;;;;;;;;;5048564;27;100125;-74
2024/01/22 04:12:07;;;;;;;1.50;1.40;;;;;;;;;;5071496;27;99564;-74
2024/01/22 04:14:33;;;;;;;1.27;1.17;;;;;;;;;;5059260;27;99062;-74
2024/01/22 04:17:00;;;;;;;2.75;1.95;;;;;;;;;;5060081;27;100050;-74
2024/01/22 04:19:26;;;;;;;1.40;1.40;;;;;;;;;;5065266;27;99637;-74
2024/01/22 04:21:53;;;;;;;1.40;1.30;;;;;;;;;;5067481;27;100012;-74
2024/01/22 04:24:19;;;;;;;1.75;1.20;;;;;;;;;;5068654;27;100432;-74
2024/01/22 04:26:46;;;;;;;0.98;0.98;;;;;;;;;;5068218;27;100181;-74
2024/01/22 04:29:12;;;;;;;1.42;1.17;;;;;;;;;;5068238;27;99099;-75
2024/01/22 04:31:39;;;;;;;0.90;0.90;;;;;;;;;;5071484;27;99246;-74
2024/01/22 04:34:05;;;;;;;1.10;1.10;;;;;;;;;;5067654;27;99995;-74
2024/01/22 04:36:32;;;;;;;1.10;1.10;;;;;;;;;;5062804;27;99811;-74
2024/01/22 04:38:58;;;;;;;2.35;1.30;;;;;;;;;;5066460;27;99843;-74
2024/01/22 04:41:25;;;;;;;1.60;1.50;;;;;;;;;;5050556;27;99108;-75
2024/01/22 04:43:51;;;;;;;1.30;1.30;;;;;;;;;;5067189;27;101103;-75
2024/01/22 04:46:17;;;;;;;1.90;1.10;;;;;;;;;;5067489;27;99040;-75
2024/01/22 04:48:44;;;;;;;1.05;1.05;;;;;;;;;;5066012;27;100775;-75
2024/01/22 04:51:11;;;;;;;1.33;1.00;;;;;;;;;;5066964;27;100001;-75
2024/01/22 04:53:37;;;;;;;3.45;1.20;;;;;;;;;;5065592;27;100069;-75
2024/01/22 04:56:04;;;;;;;1.30;1.20;;;;;;;;;;5066180;27;100026;-75
2024/01/22 04:58:31;;;;;;;0.80;0.80;;;;;;;;;;5067601;27;100016;-75
2024/01/22 05:00:57;;;;;;;1.25;1.23;;;;;;;;;;5067245;27;99373;-75
2024/01/22 05:03:24;;;;;;;1.20;1.15;;;;;;;;;;5066063;27;100520;-75
2024/01/22 05:05:50;;;;;;;1.20;1.17;;;;;;;;;;5057988;27;98814;-76
2024/01/22 05:08:17;;;;;;;1.02;1.02;;;;;;;;;;5063560;27;99707;-76
2024/01/22 05:10:43;;;;;;;1.23;1.23;;;;;;;;;;5052360;27;100898;-75
2024/01/22 05:13:10;;;;;;;1.38;1.05;;;;;;;;;;5047406;27;99336;-75
2024/01/22 05:15:36;;;;;;;2.05;1.25;;;;;;;;;;5069240;27;100102;-75
2024/01/22 05:18:03;;;;;;;1.35;1.27;;;;;;;;;;5066694;27;99052;-74
2024/01/22 05:20:29;;;;;;;1.40;1.30;;;;;;;;;;5065262;27;99126;-74
2024/01/22 05:22:56;;;;;;;1.50;1.30;;;;;;;;;;5065672;27;100170;-74
2024/01/22 05:25:22;;;;;;;1.30;1.30;;;;;;;;;;5061008;27;100102;-74
2024/01/22 05:27:49;;;;;;;2.60;1.50;;;;;;;;;;5053719;27;99171;-74
2024/01/22 05:30:15;;;;;;;1.30;1.20;;;;;;;;;;5065929;27;100222;-75
2024/01/22 05:32:42;;;;;;;3.10;1.30;;;;;;;;;;5067312;27;99996;-75
2024/01/22 05:35:08;;;;;;;2.35;1.90;;;;;;;;;;5060458;27;100735;-74
2024/01/22 05:37:35;;;;;;;1.40;1.05;;;;;;;;;;5049309;27;100278;-74
2024/01/22 05:40:01;;;;;;;1.52;1.40;;;;;;;;;;5057772;27;100190;-73
2024/01/22 05:42:28;;;;;;;1.40;1.30;;;;;;;;;;5048035;27;100169;-74
2024/01/22 05:44:54;;;;;;;1.30;1.20;;;;;;;;;;5047879;27;99919;-74
2024/01/22 05:47:20;;;;;;;2.30;1.20;;;;;;;;;;5060165;27;99243;-75
2024/01/22 05:49:47;;;;;;;2.28;1.17;;;;;;;;;;5047405;27;99795;-74
2024/01/22 05:52:14;;;;;;;1.48;0.95;;;;;;;;;;5065803;27;100225;-75
2024/01/22 05:54:40;;;;;;;2.67;1.35;;;;;;;;;;5057208;27;99938;-75
2024/01/22 05:57:07;;;;;;;4.03;1.42;;;;;;;;;;5056239;27;100645;-74
2024/01/22 05:59:37;;;;;;;1.90;1.20;;;;;;;;;;5048708;27;98614;-75
2024/01/22 06:02:04;;;;;;;3.88;1.27;;;;;;;;;;5053645;27;99581;-75
2024/01/22 06:04:30;;;;;;;1.85;1.00;;;;;;;;;;5066433;27;99980;-75
2024/01/22 06:06:57;;;;;;;3.92;1.17;;;;;;;;;;5063576;27;100177;-75
2024/01/22 06:09:27;;;;;;;5.28;1.20;;;;;;;;;;5054792;27;100296;-75
2024/01/22 06:11:54;;;;;;;3.47;1.08;;;;;;;;;;5061146;27;98984;-75
2024/01/22 06:14:30;;;;;;;1.60;1.50;;;;;;;;;;5109484;27;98197;-74
2024/01/22 06:16:57;;;;;;;2.72;1.48;;;;;;;;;;5097708;27;98919;-73
2024/01/22 06:19:23;;;;;;;3.40;1.42;;;;;;;;;;5079888;27;98384;-73
2024/01/22 06:21:50;;;;;;;2.13;1.23;;;;;;;;;;5082954;27;98484;-74
2024/01/22 06:24:16;;;;;;;8.90;1.77;;;;;;;;;;5085119;27;100119;-74
2024/01/22 06:26:43;;;;;;;10.57;1.90;;;;;;;;;;5066126;27;98335;-74
2024/01/22 06:29:13;;;;;;;4.28;1.23;;;;;;;;;;5081654;27;98746;-75
2024/01/22 06:31:41;;;;;;;14.93;2.47;;;;;;;;;;5086695;27;99941;-74
2024/01/22 06:34:07;;;;;;;5.60;1.58;;;;;;;;;;5086165;27;98226;-74
2024/01/22 06:36:34;;;;;;;7.40;2.05;;;;;;;;;;5086988;27;99797;-74
2024/01/22 06:39:01;;;;;;;7.32;1.95;;;;;;;;;;5087084;27;98168;-73
2024/01/22 06:41:27;;;;;;;7.85;2.25;;;;;;;;;;5083916;27;99392;-74
2024/01/22 06:43:53;;;;;;;4.72;1.52;;;;;;;;;;5080578;27;99323;-74
2024/01/22 06:46:21;;;;;;;9.02;2.03;;;;;;;;;;5084696;27;98362;-74
2024/01/22 06:48:47;;;;;;;6.30;2.45;;;;;;;;;;5085759;27;99188;-73
2024/01/22 06:51:14;;;;;;;5.78;1.75;;;;;;;;;;5087213;27;100423;-73
2024/01/22 06:53:41;;;;;;;5.47;1.83;;;;;;;;;;5082075;27;98183;-74
2024/01/22 06:56:08;;;;;;;6.25;1.80;;;;;;;;;;5074426;27;98502;-73
2024/01/22 06:58:35;;;;;;;5.15;1.50;;;;;;;;;;5078129;27;99678;-76
2024/01/22 07:01:04;;;;;;;8.60;2.22;;;;;;;;;;5080011;27;99681;-76
2024/01/22 07:03:31;;;;;;;4.30;1.63;;;;;;;;;;5083961;27;99639;-75
2024/01/22 07:05:57;;;;;;;3.85;1.75;;;;;;;;;;5082905;27;99440;-74
2024/01/22 07:08:24;;;;;;;4.95;1.75;;;;;;;;;;5085911;27;99268;-74
2024/01/22 07:10:51;;;;;;;3.83;2.00;;;;;;;;;;5086302;27;99986;-74
2024/01/22 07:13:17;;;;;;;6.57;2.17;;;;;;;;;;5085488;27;98317;-75
2024/01/22 07:15:44;;;;;;;11.57;2.78;;;;;;;;;;5080861;27;98502;-75
2024/01/22 07:18:10;;;;;;;13.82;3.45;;;;;;;;;;5090193;27;100277;-76
2024/01/22 07:20:37;;;;;;;15.25;2.40;;;;;;;;;;5087180;27;99253;-76
2024/01/22 07:23:04;;;;;;;11.93;3.00;;;;;;;;;;5085205;27;99274;-74
2024/01/22 07:25:34;;;;;;;8.20;2.28;;;;;;;;;;5074908;27;98229;-78
2024/01/22 07:28:00;;;;;;;10.20;2.05;;;;;;;;;;5071078;27;99462;-76
2024/01/22 07:30:28;;;;;;;11.98;2.53;;;;;;;;;;5070201;27;98982;-78
2024/01/22 07:32:54;;;;;;;10.70;2.42;;;;;;;;;;5071125;27;98242;-77
2024/01/22 07:35:21;;;;;;;15.98;2.83;;;;;;;;;;5072361;27;99535;-76
2024/01/22 07:37:47;;;;;;;11.43;3.00;;;;;;;;;;5092797;27;99999;-77
2024/01/22 07:40:14;;;;;;;15.73;3.58;;;;;;;;;;5096886;27;98308;-76
2024/01/22 07:42:41;;;;;;;12.02;2.58;;;;;;;;;;5092013;27;99427;-76
2024/01/22 07:45:09;;;;;;;17.15;3.75;;;;;;;;;;5092320;27;98224;-76
2024/01/22 07:47:35;;;;;;;11.95;3.45;;;;;;;;;;5093134;27;98880;-76
2024/01/22 07:50:05;;;;;;;17.15;3.67;;;;;;;;;;5093103;27;99905;-74
2024/01/22 07:52:33;;;;;;;20.35;4.03;;;;;;;;;;5092916;27;98547;-75
2024/01/22 07:55:00;;;;;;;18.80;3.45;;;;;;;;;;5093215;27;99528;-74
2024/01/22 07:57:27;;;;;;;18.92;3.05;;;;;;;;;;5093111;27;100223;-75
2024/01/22 07:59:54;;;;;;;27.73;3.80;;;;;;;;;;5091943;27;98710;-75
2024/01/22 08:02:20;;;;;;;25.73;5.05;;;;;;;;;;5096243;27;99437;-75
2024/01/22 08:04:47;;;;;;;16.35;3.70;;;;;;;;;;5092611;27;98223;-75
2024/01/22 08:07:14;;;;;;;20.40;3.63;;;;;;;;;;5092198;27;98518;-75
2024/01/22 08:09:42;;;;;;;25.60;3.53;;;;;;;;;;5092976;27;99859;-76
2024/01/22 08:12:09;;;;;;;22.95;3.67;;;;;;;;;;5091959;27;98546;-75
2024/01/22 08:14:36;;;;;;;21.13;3.20;;;;;;;;;;5093317;27;99451;-76
2024/01/22 08:17:02;;;;;;;15.65;3.03;;;;;;;;;;5092606;27;99989;-75
2024/01/22 08:19:30;;;;;;;11.45;3.88;;;;;;;;;;5092645;27;98525;-75
2024/01/22 08:21:56;;;;;;;17.60;3.08;;;;;;;;;;5092740;27;99533;-75
2024/01/22 08:24:23;;;;;;;11.93;3.03;;;;;;;;;;5095712;27;98100;-76
2024/01/22 08:26:50;;;;;;;13.02;3.42;;;;;;;;;;5092349;27;99748;-76
2024/01/22 08:29:16;;;;;;;19.95;3.67;;;;;;;;;;5091782;27;98906;-76
2024/01/22 08:31:43;;;;;;;8.95;3.13;;;;;;;;;;5092524;27;98136;-77
2024/01/22 08:34:10;;;;;;;11.88;2.70;;;;;;;;;;5072741;27;99306;-75
2024/01/22 08:36:36;;;;;;;14.95;3.50;;;;;;;;;;5070771;27;100198;-74
2024/01/22 08:39:03;;;;;;;10.90;3.35;;;;;;;;;;5071854;27;98314;-74
2024/01/22 08:41:29;;;;;;;11.90;2.58;;;;;;;;;;5071449;27;98568;-75
2024/01/22 08:43:59;;;;;;;11.18;2.70;;;;;;;;;;5074150;27;99254;-74
2024/01/22 08:46:27;;;;;;;8.55;2.92;;;;;;;;;;5071157;27;98674;-75
2024/01/22 08:48:55;;;;;;;18.35;2.67;;;;;;;;;;5070414;27;98868;-75
2024/01/22 08:51:21;;;;;;;19.25;5.60;;;;;;;;;;5072111;27;98199;-74
2024/01/22 08:53:49;;;;;;;15.52;3.15;;;;;;;;;;5071430;27;99263;-76
2024/01/22 08:56:15;;;;;;;10.68;3.05;;;;;;;;;;5071295;27;100222;-75
2024/01/22 08:58:42;;;;;;;29.45;5.05;;;;;;;;;;5072106;27;98187;-76
2024/01/22 09:01:08;;;;;;;25.85;3.25;;;;;;;;;;5070728;27;98806;-75
2024/01/22 09:03:36;;;;;;;21.45;3.97;;;;;;;;;;5071505;27;100041;-75
2024/01/22 09:06:05;;;;;;;20.25;4.32;;;;;;;;;;5074961;27;98180;-75
2024/01/22 09:08:34;;;;;;;21.45;5.18;;;;;;;;;;5070754;27;99920;-75
2024/01/22 09:11:02;;;;;;;17.27;4.40;;;;;;;;;;5071442;27;97989;-75
2024/01/22 09:13:29;;;;;;;19.63;4.28;;;;;;;;;;5070715;27;98096;-75
2024/01/22 09:15:57;;;;;;;27.17;4.88;;;;;;;;;;5070625;27;100757;-75
2024/01/22 09:18:23;;;;;;;32.38;5.85;;;;;;;;;;5071593;27;99023;-75
2024/01/22 09:20:51;;;;;;;30.35;5.88;;;;;;;;;;5071838;27;99681;-75
2024/01/22 09:23:18;;;;;;;29.85;5.57;;;;;;;;;;5070165;27;100274;-75
2024/01/22 09:25:45;;;;;;;36.05;5.45;;;;;;;;;;5071604;27;98223;-75
2024/01/22 09:28:13;;;;;;;34.17;6.13;;;;;;;;;;5074087;27;99845;-75
2024/01/22 09:30:40;;;;;;;31.65;6.13;;;;;;;;;;5070759;27;98041;-75
2024/01/22 09:33:09;;;;;;;41.35;6.32;;;;;;;;;;5070757;27;99364;-77
2024/01/22 09:35:40;;;;;;;38.80;5.70;;;;;;;;;;5071490;27;99945;-75
2024/01/22 09:38:07;;;;;;;26.77;4.80;;;;;;;;;;5090764;27;98149;-74
2024/01/22 09:40:33;;;;;;;33.13;5.75;;;;;;;;;;5092045;27;99515;-75
2024/01/22 09:43:04;;;;;;;34.60;6.60;;;;;;;;;;5091214;27;99899;-75
2024/01/22 09:45:33;;;;;;;41.30;6.85;;;;;;;;;;5091587;27;98110;-74
2024/01/22 09:47:59;;;;;;;32.85;5.72;;;;;;;;;;5076302;27;99794;-75
2024/01/22 09:50:27;;;;;;;35.67;5.60;;;;;;;;;;5067593;27;98863;-76
2024/01/22 09:52:57;;;;;;;38.97;4.68;;;;;;;;;;5070449;27;99011;-75
2024/01/22 09:55:24;;;;;;;24.88;5.57;;;;;;;;;;5070639;27;100007;-75
2024/01/22 09:57:53;;;;;;;49.30;6.57;;;;;;;;;;5070096;27;98218;-75
2024/01/22 10:00:25;;;;;;;36.38;6.07;;;;;;;;;;5069881;27;98518;-75
2024/01/22 10:02:52;;;;;;;;;;;;;;;;;;5071173;27;99725;-76
2024/01/22 10:05:19;;;;;;;45.28;6.35;;;;;;;;;;5069032;27;116829;-75
2024/01/22 10:07:47;;;;;;;32.65;5.75;;;;;;;;;;5070073;27;98327;-75
2024/01/22 10:10:14;;;;;;;28.23;5.47;;;;;;;;;;5070539;27;100323;-75
2024/01/22 10:13:04;;;;;;;29.70;5.97;;;;;;;;;;5072679;27;98248;-75
2024/01/22 10:15:32;;;;;;;31.23;5.75;;;;;;;;;;5070479;27;99957;-75
2024/01/22 10:18:12;;;;;;;30.73;5.38;;;;;;;;;;5069723;27;98367;-75
2024/01/22 10:20:39;;;;;;;20.13;4.55;;;;;;;;;;5070481;27;99458;-75
2024/01/22 10:23:06;;;;;;;25.88;4.93;;;;;;;;;;5068954;27;99055;-75
2024/01/22 10:25:32;;;;;;;24.90;4.32;;;;;;;;;;5069517;27;98584;-75
2024/01/22 10:28:09;;;;;;;28.92;4.38;;;;;;;;;;5069989;27;99467;-76
2024/01/22 10:30:37;;;;;;;24.52;5.07;;;;;;;;;;5068953;27;99293;-76
2024/01/22 10:33:13;;;;;;;17.70;3.78;;;;;;;;;;5072217;27;98487;-76
2024/01/22 10:35:41;;;;;;;32.63;5.45;;;;;;;;;;5069148;27;98952;-76
2024/01/22 10:38:12;;;;;;;25.85;4.20;;;;;;;;;;5069444;27;98283;-75
2024/01/22 10:40:38;;;;;;;24.65;4.00;;;;;;;;;;5069300;27;99751;-76
2024/01/22 10:43:26;;;;;;;21.60;3.97;;;;;;;;;;5069310;27;100150;-76
2024/01/22 10:45:54;;;;;;;27.35;5.43;;;;;;;;;;5070424;27;98905;-75
2024/01/22 10:48:25;;;;;;;22.58;4.95;;;;;;;;;;5070255;27;99258;-76
2024/01/22 10:51:07;;;;;;;16.90;3.83;;;;;;;;;;5069403;27;99819;-75
2024/01/22 10:53:34;;;;;;;24.10;4.63;;;;;;;;;;5069126;27;99849;-75
2024/01/22 10:56:05;;;;;;;25.10;5.38;;;;;;;;;;5072263;27;98467;-76
2024/01/22 10:58:39;;;;;;;27.20;3.45;;;;;;;;;;5069535;27;98230;-74
2024/01/22 11:01:09;;;;;;;19.73;4.75;;;;;;;;;;5072094;27;99309;-73
2024/01/22 11:03:39;;;;;;;27.45;4.63;;;;;;;;;;5073057;27;99861;-74
2024/01/22 11:06:07;;;;;;;17.13;4.35;;;;;;;;;;5073193;27;98166;-74
2024/01/22 11:08:33;;;;;;;23.92;4.32;;;;;;;;;;5072473;27;98620;-74
2024/01/22 11:11:01;;;;;;;24.13;4.32;;;;;;;;;;5072562;27;100305;-73
2024/01/22 11:13:28;;;;;;;20.90;3.15;;;;;;;;;;5072838;27;98264;-75
2024/01/22 11:15:55;;;;;;;19.85;3.47;;;;;;;;;;5072428;27;99769;-72
2024/01/22 11:18:22;;;;;;;20.25;4.00;;;;;;;;;;5074950;27;99200;-77
2024/01/22 11:21:08;;;;;;;28.55;4.38;;;;;;;;;;5071894;27;99424;-76
2024/01/22 11:23:35;;;;;;;20.30;3.53;;;;;;;;;;5072939;27;99856;-76
2024/01/22 11:26:10;;;;;;;30.50;4.55;;;;;;;;;;5074318;27;98210;-76
2024/01/22 11:28:36;;;;;;;22.75;4.82;;;;;;;;;;5072543;27;99335;-76
2024/01/22 11:31:03;;;;;;;14.80;3.08;;;;;;;;;;5072169;27;98922;-76
2024/01/22 11:33:31;;;;;;;23.38;4.63;;;;;;;;;;5073145;27;98336;-76
2024/01/22 11:35:57;;;;;;;22.52;3.60;;;;;;;;;;5073061;27;100082;-75
2024/01/22 11:38:42;;;;;;;15.15;3.20;;;;;;;;;;5087967;27;99993;-75
2024/01/22 11:41:09;;;;;;;16.77;3.80;;;;;;;;;;5064546;27;98182;-75
2024/01/22 11:43:35;;;;;;;12.98;3.25;;;;;;;;;;5071114;27;99228;-75
2024/01/22 11:46:14;;;;;;;21.38;3.67;;;;;;;;;;5074084;27;98315;-75
2024/01/22 11:48:41;;;;;;;14.02;3.40;;;;;;;;;;5072734;27;99813;-76
2024/01/22 11:51:08;;;;;;;15.95;3.97;;;;;;;;;;5070708;27;99292;-78
2024/01/22 11:53:49;;;;;;;21.95;3.40;;;;;;;;;;5071989;27;98277;-76
2024/01/22 11:56:16;;;;;;;20.90;4.90;;;;;;;;;;5072020;27;99469;-76
2024/01/22 11:58:42;;;;;;;16.92;3.50;;;;;;;;;;5071555;27;101746;-75
2024/01/22 12:01:10;;;;;;;15.68;2.92;;;;;;;;;;5071948;27;98222;-75
2024/01/22 12:03:37;;;;;;;15.23;3.38;;;;;;;;;;5075621;27;99248;-76
2024/01/22 12:06:05;;;;;;;21.23;3.78;;;;;;;;;;5071148;27;98396;-76
2024/01/22 12:08:32;;;;;;;15.95;2.85;;;;;;;;;;5072285;27;99458;-76
2024/01/22 12:11:08;;;;;;;20.77;4.30;;;;;;;;;;5070728;27;100255;-76
2024/01/22 12:13:37;;;;;;;23.23;4.20;;;;;;;;;;5071838;27;98121;-75
2024/01/22 12:16:03;;;;;;;14.55;3.65;;;;;;;;;;5071662;27;99662;-76
2024/01/22 12:18:30;;;;;;;18.70;4.47;;;;;;;;;;5069934;27;99439;-76
2024/01/22 12:20:56;;;;;;;21.55;4.43;;;;;;;;;;5069737;27;98307;-76
2024/01/22 12:23:29;;;;;;;20.50;4.47;;;;;;;;;;5072076;27;99386;-76
2024/01/22 12:25:57;;;;;;;17.23;4.07;;;;;;;;;;5073921;27;100076;-76
2024/01/22 12:28:30;;;;;;;27.27;3.72;;;;;;;;;;5071400;27;98393;-76
2024/01/22 12:30:57;;;;;;;23.60;3.53;;;;;;;;;;5071094;27;100166;-74
2024/01/22 12:33:24;;;;;;;19.70;4.22;;;;;;;;;;5070495;27;98447;-75
2024/01/22 12:36:04;;;;;;;14.20;3.60;;;;;;;;;;5071385;27;99397;-78
2024/01/22 12:38:32;;;;;;;24.00;3.60;;;;;;;;;;5071546;27;99989;-75
2024/01/22 12:41:08;;;;;;;20.98;3.78;;;;;;;;;;5070618;27;98203;-75
2024/01/22 12:43:36;;;;;;;23.02;3.45;;;;;;;;;;5071624;27;99493;-76
2024/01/22 12:46:14;;;;;;;18.25;3.95;;;;;;;;;;5072422;27;99023;-76
2024/01/22 12:48:44;;;;;;;18.17;3.75;;;;;;;;;;5071900;27;99566;-75
2024/01/22 12:51:11;;;;;;;26.30;2.80;;;;;;;;;;5070680;27;99948;-75
2024/01/22 12:53:41;;;;;;;14.60;3.38;;;;;;;;;;5071108;27;98214;-75
2024/01/22 12:56:08;;;;;;;22.83;3.55;;;;;;;;;;5070374;27;98811;-76
2024/01/22 12:58:38;;;;;;;9.50;2.63;;;;;;;;;;5070345;27;99501;-76
2024/01/22 13:01:05;;;;;;;18.65;4.18;;;;;;;;;;5070408;27;98229;-74
2024/01/22 13:03:31;;;;;;;18.25;3.10;;;;;;;;;;5071212;27;99560;-75
2024/01/22 13:05:58;;;;;;;14.10;3.28;;;;;;;;;;5070749;27;99928;-75
2024/01/22 13:08:25;;;;;;;25.00;4.60;;;;;;;;;;5073815;27;98222;-77
2024/01/22 13:10:52;;;;;;;13.30;3.47;;;;;;;;;;5070354;27;99194;-77
2024/01/22 13:13:18;;;;;;;13.75;3.63;;;;;;;;;;5070051;27;98384;-75
2024/01/22 13:15:46;;;;;;;11.05;3.53;;;;;;;;;;5070335;27;100002;-74
2024/01/22 13:18:33;;;;;;;16.75;3.53;;;;;;;;;;5071029;27;100056;-74
2024/01/22 13:20:59;;;;;;;24.60;3.83;;;;;;;;;;5070780;27;98226;-74
2024/01/22 13:23:26;;;;;;;19.25;4.88;;;;;;;;;;5069722;27;99311;-74
2024/01/22 13:25:55;;;;;;;25.38;3.85;;;;;;;;;;5070493;27;99928;-74
2024/01/22 13:28:22;;;;;;;11.15;4.05;;;;;;;;;;5070580;27;98291;-74
2024/01/22 13:30:48;;;;;;;21.33;4.05;;;;;;;;;;5073855;27;99361;-74
2024/01/22 13:33:15;;;;;;;19.92;6.60;;;;;;;;;;5070546;27;98181;-74
2024/01/22 13:35:42;;;;;;;22.77;3.60;;;;;;;;;;5070318;27;99766;-73
2024/01/22 13:38:09;;;;;;;19.48;3.83;;;;;;;;;;5090196;27;99161;-74
2024/01/22 13:40:35;;;;;;;13.00;3.03;;;;;;;;;;5090693;27;98232;-75
2024/01/22 13:43:02;;;;;;;21.98;3.80;;;;;;;;;;5091535;27;99392;-73
2024/01/22 13:45:28;;;;;;;13.85;2.90;;;;;;;;;;5090893;27;99896;-74
2024/01/22 13:47:55;;;;;;;19.45;3.85;;;;;;;;;;5082233;27;98697;-74
2024/01/22 13:50:22;;;;;;;23.95;4.57;;;;;;;;;;5069340;27;98477;-74
2024/01/22 13:52:49;;;;;;;9.50;3.58;;;;;;;;;;5073542;27;100275;-74
2024/01/22 13:55:16;;;;;;;24.83;5.03;;;;;;;;;;5070072;27;99684;-74
2024/01/22 13:57:42;;;;;;;16.63;4.05;;;;;;;;;;5069305;27;99715;-74
2024/01/22 14:00:09;;;;;;;23.13;3.97;;;;;;;;;;5070286;27;98220;-74
2024/01/22 14:02:35;;;;;;;15.63;3.45;;;;;;;;;;5070494;27;99484;-74
2024/01/22 14:05:03;;;;;;;24.25;4.95;;;;;;;;;;5069100;27;99935;-74
2024/01/22 14:07:30;;;;;;;18.52;3.63;;;;;;;;;;5070407;27;98847;-74
2024/01/22 14:09:56;;;;;;;10.70;3.72;;;;;;;;;;5070119;27;99631;-74
2024/01/22 14:12:23;;;;;;;23.33;4.57;;;;;;;;;;5068652;27;100330;-74
2024/01/22 14:14:50;;;;;;;17.35;3.95;;;;;;;;;;5073484;27;98136;-74
2024/01/22 14:17:17;;;;;;;32.83;3.75;;;;;;;;;;5068946;27;99014;-74
2024/01/22 14:19:43;;;;;;;27.50;5.85;;;;;;;;;;5069733;27;98273;-74
2024/01/22 14:22:10;;;;;;;34.97;5.45;;;;;;;;;;5069746;27;98484;-74
2024/01/22 14:24:37;;;;;;;11.13;3.53;;;;;;;;;;5069209;27;99838;-75
2024/01/22 14:27:03;;;;;;;18.20;4.30;;;;;;;;;;5069912;27;98270;-74
2024/01/22 14:29:31;;;;;;;28.92;5.07;;;;;;;;;;5070206;27;100211;-74
2024/01/22 14:31:58;;;;;;;21.52;4.25;;;;;;;;;;5068973;27;100383;-75
2024/01/22 14:34:24;;;;;;;15.30;3.53;;;;;;;;;;5070735;27;98451;-76